Carriel Sur Airport
SCIE : rendu visible

Aérodrome :











RETROUVEZ-NOUS SUR...

 
LOGIN :

S'inscrire | Disclaimer

   EN    FR    IT 

 









Légende :    VFR   VFR Marginal   IFR   IFR Intensif   IFR Très Intensif
Visi : 
Plafond : 
>= 8 km
>= 3000ft
5 à 8 km
1000 à 3000 ft
1500m à 5 km
500 à 1000 ft
800 à 1500m
200 à 500 ft
< 800m
< 200 ft
Symboles :   Orages  Brouillard  Fortes neiges  Fortes précipitations  Vent > 20 kt






- Altitude de l'aérodrome : 26 ft
- Code IATA : CCP


SCIE - Carriel Sur

DERNIER METAR :
  • 201800Z 22008KT 190V260 CAVOK 18/04 Q1015

METARs EXPIRÉS :
  • 201700Z 23007KT 200V260 CAVOK 19/03 Q1015
  • 201600Z 22008KT 9999 FEW010 18/03 Q1015

TAF TAF SCIE
Valide du 20 à 18h jusqu'au 21 à 18h UTC


201610Z 2018/2118 22010KT CAVOK TX20/2019Z TN07/2110Z
BECMG 2102/2104 16004KT
TEMPO 2107/2112 4000 BR SCT005 SCT008
BECMG 2115/2117 22008KT
FIR SCEZ / Amérique du Sud



MET'MAP, la Météo Aéronautique d'un coup d'oeil ! - Copyright ORBIFLY Décembre 2007 - Disclaimer

ORBIFLY MET'MAP TEAM :

Programmation & Développement : Alexandra Zaïnal
Sur une idée originale de : Baudouin d'Aumeries
Assistance à la programmation : Marc-Olivier Méhu
Soutien technique & logistique : Manuel Goepfert

Contact : metmap@orbifly.com




SOURCES & CREDITS :

   NOAA       Earth
Advisory